sensor_id;sensor_type;location;lat;lon;timestamp;pressure;altitude;pressure_sealevel;temperature;humidity
49044;BME280;34860;48.066;14.124;2023-03-31T00:00:51;96266.22;;;11.43;57.88
49044;BME280;34860;48.066;14.124;2023-03-31T00:03:41;96270.56;;;11.44;58.15
49044;BME280;34860;48.066;14.124;2023-03-31T00:06:34;96265.75;;;11.45;58.06
49044;BME280;34860;48.066;14.124;2023-03-31T00:09:25;96273.34;;;11.44;58.01
49044;BME280;34860;48.066;14.124;2023-03-31T00:12:17;96264.22;;;11.44;58.04
49044;BME280;34860;48.066;14.124;2023-03-31T00:15:08;96272.88;;;11.46;57.97
49044;BME280;34860;48.066;14.124;2023-03-31T00:17:57;96268.84;;;11.47;58.12
49044;BME280;34860;48.066;14.124;2023-03-31T00:20:47;96262.84;;;11.49;57.94
49044;BME280;34860;48.066;14.124;2023-03-31T00:23:40;96271.19;;;11.49;57.94
49044;BME280;34860;48.066;14.124;2023-03-31T00:26:29;96277.09;;;11.51;57.92
49044;BME280;34860;48.066;14.124;2023-03-31T00:29:18;96266.72;;;11.51;57.95
49044;BME280;34860;48.066;14.124;2023-03-31T00:32:08;96268.28;;;11.52;57.88
49044;BME280;34860;48.066;14.124;2023-03-31T00:34:56;96263.03;;;11.54;57.92
49044;BME280;34860;48.066;14.124;2023-03-31T00:37:45;96257.78;;;11.56;57.82
49044;BME280;34860;48.066;14.124;2023-03-31T00:40:36;96243.56;;;11.54;57.78
49044;BME280;34860;48.066;14.124;2023-03-31T00:43:30;96234.75;;;11.56;57.95
49044;BME280;34860;48.066;14.124;2023-03-31T00:46:23;96239.56;;;11.55;57.79
49044;BME280;34860;48.066;14.124;2023-03-31T00:49:18;96235.53;;;11.56;57.84
49044;BME280;34860;48.066;14.124;2023-03-31T00:52:15;96226.41;;;11.56;57.89
49044;BME280;34860;48.066;14.124;2023-03-31T00:55:07;96229.50;;;11.58;57.91
49044;BME280;34860;48.066;14.124;2023-03-31T00:58:03;96215.28;;;11.56;57.81
49044;BME280;34860;48.066;14.124;2023-03-31T01:00:56;96206.16;;;11.55;57.75
49044;BME280;34860;48.066;14.124;2023-03-31T01:03:46;96196.25;;;11.54;57.93
49044;BME280;34860;48.066;14.124;2023-03-31T01:06:43;96180.78;;;11.53;57.82
49044;BME280;34860;48.066;14.124;2023-03-31T01:09:36;96180.31;;;11.55;57.88
49044;BME280;34860;48.066;14.124;2023-03-31T01:12:25;96174.13;;;11.51;57.86
49044;BME280;34860;48.066;14.124;2023-03-31T01:15:16;96173.03;;;11.48;57.79
49044;BME280;34860;48.066;14.124;2023-03-31T01:18:05;96164.38;;;11.46;57.86
49044;BME280;34860;48.066;14.124;2023-03-31T01:21:26;96149.34;;;11.43;57.90
49044;BME280;34860;48.066;14.124;2023-03-31T01:24:44;96147.47;;;11.40;57.89
49044;BME280;34860;48.066;14.124;2023-03-31T01:27:52;96146.69;;;11.40;57.92
49044;BME280;34860;48.066;14.124;2023-03-31T01:31:17;96141.59;;;11.38;57.90
49044;BME280;34860;48.066;14.124;2023-03-31T01:34:27;96132.94;;;11.36;57.86
49044;BME280;34860;48.066;14.124;2023-03-31T01:37:42;96123.03;;;11.35;57.77
49044;BME280;34860;48.066;14.124;2023-03-31T01:40:46;96121.47;;;11.34;57.89
49044;BME280;34860;48.066;14.124;2023-03-31T01:43:43;96116.34;;;11.33;57.87
49044;BME280;34860;48.066;14.124;2023-03-31T01:46:40;96111.25;;;11.31;57.96
49044;BME280;34860;48.066;14.124;2023-03-31T01:49:39;96111.25;;;11.31;57.83
49044;BME280;34860;48.066;14.124;2023-03-31T01:52:36;96102.59;;;11.29;57.88
49044;BME280;34860;48.066;14.124;2023-03-31T01:55:33;96095.81;;;11.30;57.84
49044;BME280;34860;48.066;14.124;2023-03-31T01:58:26;96089.94;;;11.28;57.81
49044;BME280;34860;48.066;14.124;2023-03-31T02:01:21;96088.81;;;11.25;57.72
49044;BME280;34860;48.066;14.124;2023-03-31T02:04:19;96086.50;;;11.24;57.89
49044;BME280;34860;48.066;14.124;2023-03-31T02:07:15;96087.41;;;11.21;58.00
49044;BME280;34860;48.066;14.124;2023-03-31T02:10:07;96086.31;;;11.18;57.92
49044;BME280;34860;48.066;14.124;2023-03-31T02:12:59;96085.69;;;11.14;57.87
49044;BME280;34860;48.066;14.124;2023-03-31T02:15:53;96069.13;;;11.11;58.03
49044;BME280;34860;48.066;14.124;2023-03-31T02:18:45;96062.47;;;11.08;57.99
49044;BME280;34860;48.066;14.124;2023-03-31T02:21:39;96063.38;;;11.05;57.95
49044;BME280;34860;48.066;14.124;2023-03-31T02:24:29;96055.94;;;11.02;58.10
49044;BME280;34860;48.066;14.124;2023-03-31T02:27:20;96048.06;;;11.00;58.16
49044;BME280;34860;48.066;14.124;2023-03-31T02:30:13;96045.72;;;10.99;57.82
49044;BME280;34860;48.066;14.124;2023-03-31T02:33:04;96046.19;;;10.97;58.11
49044;BME280;34860;48.066;14.124;2023-03-31T02:35:54;96047.44;;;10.96;58.03
49044;BME280;34860;48.066;14.124;2023-03-31T02:38:47;96041.53;;;10.94;58.12
49044;BME280;34860;48.066;14.124;2023-03-31T02:41:38;96027.31;;;10.92;57.95
49044;BME280;34860;48.066;14.124;2023-03-31T02:44:28;96021.75;;;10.92;58.04
49044;BME280;34860;48.066;14.124;2023-03-31T02:47:18;96027.78;;;10.90;58.13
49044;BME280;34860;48.066;14.124;2023-03-31T02:50:11;96024.69;;;10.88;58.10
49044;BME280;34860;48.066;14.124;2023-03-31T02:53:03;96020.34;;;10.87;58.10
49044;BME280;34860;48.066;14.124;2023-03-31T02:56:06;96014.00;;;10.87;58.05
49044;BME280;34860;48.066;14.124;2023-03-31T02:59:15;96008.44;;;10.87;58.06
49044;BME280;34860;48.066;14.124;2023-03-31T03:02:14;96010.44;;;10.86;58.05
49044;BME280;34860;48.066;14.124;2023-03-31T03:05:15;96011.69;;;10.85;58.17
49044;BME280;34860;48.066;14.124;2023-03-31T03:08:36;96018.47;;;10.84;58.13
49044;BME280;34860;48.066;14.124;2023-03-31T03:11:37;96019.72;;;10.83;58.10
49044;BME280;34860;48.066;14.124;2023-03-31T03:14:34;96014.91;;;10.84;58.09
49044;BME280;34860;48.066;14.124;2023-03-31T03:17:29;96011.03;;;10.81;58.06
49044;BME280;34860;48.066;14.124;2023-03-31T03:20:22;96009.06;;;10.82;58.16
49044;BME280;34860;48.066;14.124;2023-03-31T03:23:11;95999.91;;;10.81;58.06
49044;BME280;34860;48.066;14.124;2023-03-31T03:26:01;95996.69;;;10.83;58.16
49044;BME280;34860;48.066;14.124;2023-03-31T03:28:51;95988.34;;;10.83;58.05
49044;BME280;34860;48.066;14.124;2023-03-31T03:31:42;95973.69;;;10.82;58.11
49044;BME280;34860;48.066;14.124;2023-03-31T03:34:32;95972.91;;;10.82;58.12
49044;BME280;34860;48.066;14.124;2023-03-31T03:37:22;95969.69;;;10.83;58.12
49044;BME280;34860;48.066;14.124;2023-03-31T03:40:11;95966.56;;;10.81;58.11
49044;BME280;34860;48.066;14.124;2023-03-31T03:43:01;95969.03;;;10.79;58.08
49044;BME280;34860;48.066;14.124;2023-03-31T03:45:50;95968.25;;;10.79;58.14
49044;BME280;34860;48.066;14.124;2023-03-31T03:48:40;95972.25;;;10.78;58.14
49044;BME280;34860;48.066;14.124;2023-03-31T03:51:29;95970.69;;;10.77;58.16
49044;BME280;34860;48.066;14.124;2023-03-31T03:54:19;95966.41;;;10.76;58.19
49044;BME280;34860;48.066;14.124;2023-03-31T03:57:08;95953.41;;;10.72;58.16
49044;BME280;34860;48.066;14.124;2023-03-31T03:59:56;95952.31;;;10.70;58.16
49044;BME280;34860;48.066;14.124;2023-03-31T04:02:46;95949.97;;;10.68;58.15
49044;BME280;34860;48.066;14.124;2023-03-31T04:05:34;95942.25;;;10.63;58.34
49044;BME280;34860;48.066;14.124;2023-03-31T04:08:23;95947.47;;;10.61;58.30
49044;BME280;34860;48.066;14.124;2023-03-31T04:11:15;95938.19;;;10.55;58.29
49044;BME280;34860;48.066;14.124;2023-03-31T04:14:05;95936.00;;;10.50;58.31
49044;BME280;34860;48.066;14.124;2023-03-31T04:16:54;95926.25;;;10.45;58.51
49044;BME280;34860;48.066;14.124;2023-03-31T04:19:44;95929.94;;;10.42;58.43
49044;BME280;34860;48.066;14.124;2023-03-31T04:22:36;95931.28;;;10.38;58.37
49044;BME280;34860;48.066;14.124;2023-03-31T04:25:28;95914.09;;;10.30;58.45
49044;BME280;34860;48.066;14.124;2023-03-31T04:28:19;95902.31;;;10.26;58.41
49044;BME280;34860;48.066;14.124;2023-03-31T04:31:09;95909.28;;;10.21;58.50
49044;BME280;34860;48.066;14.124;2023-03-31T04:34:06;95907.84;;;10.16;58.59
49044;BME280;34860;48.066;14.124;2023-03-31T04:37:00;95899.31;;;10.11;58.67
49044;BME280;34860;48.066;14.124;2023-03-31T04:39:50;95899.44;;;10.07;58.58
49044;BME280;34860;48.066;14.124;2023-03-31T04:42:41;95900.34;;;10.04;58.74
49044;BME280;34860;48.066;14.124;2023-03-31T04:45:32;95888.59;;;10.00;58.58
49044;BME280;34860;48.066;14.124;2023-03-31T04:48:22;95892.28;;;9.97;58.59
49044;BME280;34860;48.066;14.124;2023-03-31T04:51:10;95891.19;;;9.94;58.75
49044;BME280;34860;48.066;14.124;2023-03-31T04:54:02;95891.66;;;9.93;58.59
49044;BME280;34860;48.066;14.124;2023-03-31T04:56:51;95894.09;;;9.91;58.61
49044;BME280;34860;48.066;14.124;2023-03-31T04:59:39;95892.09;;;9.91;58.74
49044;BME280;34860;48.066;14.124;2023-03-31T05:02:30;95889.31;;;9.91;58.74
49044;BME280;34860;48.066;14.124;2023-03-31T05:05:19;95886.22;;;9.89;58.63
49044;BME280;34860;48.066;14.124;2023-03-31T05:08:08;95883.09;;;9.87;58.71
49044;BME280;34860;48.066;14.124;2023-03-31T05:10:59;95875.22;;;9.86;58.66
49044;BME280;34860;48.066;14.124;2023-03-31T05:13:49;95866.72;;;9.80;58.63
49044;BME280;34860;48.066;14.124;2023-03-31T05:16:38;95862.41;;;9.79;59.02
49044;BME280;34860;48.066;14.124;2023-03-31T05:19:29;95860.38;;;9.79;58.79
49044;BME280;34860;48.066;14.124;2023-03-31T05:22:25;95867.50;;;9.80;58.79
49044;BME280;34860;48.066;14.124;2023-03-31T05:25:14;95867.03;;;9.82;58.73
49044;BME280;34860;48.066;14.124;2023-03-31T05:28:05;95863.81;;;9.84;58.70
49044;BME280;34860;48.066;14.124;2023-03-31T05:30:58;95864.59;;;9.84;58.83
49044;BME280;34860;48.066;14.124;2023-03-31T05:33:49;95857.38;;;9.87;58.69
49044;BME280;34860;48.066;14.124;2023-03-31T05:36:42;95848.59;;;9.88;58.73
49044;BME280;34860;48.066;14.124;2023-03-31T05:39:32;95855.25;;;9.91;58.54
49044;BME280;34860;48.066;14.124;2023-03-31T05:42:22;95846.78;;;9.94;58.51
49044;BME280;34860;48.066;14.124;2023-03-31T05:45:10;95850.63;;;9.97;58.60
49044;BME280;34860;48.066;14.124;2023-03-31T05:47:59;95842.66;;;9.99;58.56
49044;BME280;34860;48.066;14.124;2023-03-31T05:50:55;95836.19;;;10.02;58.66
49044;BME280;34860;48.066;14.124;2023-03-31T05:53:45;95833.72;;;10.04;58.49
49044;BME280;34860;48.066;14.124;2023-03-31T05:56:34;95836.81;;;10.06;58.50
49044;BME280;34860;48.066;14.124;2023-03-31T05:59:22;95835.16;;;10.09;58.52
49044;BME280;34860;48.066;14.124;2023-03-31T06:02:15;95823.91;;;10.12;58.54
49044;BME280;34860;48.066;14.124;2023-03-31T06:05:06;95815.56;;;10.12;58.45
49044;BME280;34860;48.066;14.124;2023-03-31T06:07:55;95807.25;;;10.12;58.45
49044;BME280;34860;48.066;14.124;2023-03-31T06:10:45;95802.00;;;10.14;58.58
49044;BME280;34860;48.066;14.124;2023-03-31T06:13:34;95803.56;;;10.15;58.59
49044;BME280;34860;48.066;14.124;2023-03-31T06:16:24;95798.66;;;10.20;58.63
49044;BME280;34860;48.066;14.124;2023-03-31T06:19:16;95789.06;;;10.21;58.54
49044;BME280;34860;48.066;14.124;2023-03-31T06:22:05;95783.72;;;10.26;58.60
49044;BME280;34860;48.066;14.124;2023-03-31T06:24:53;95781.09;;;10.32;58.47
49044;BME280;34860;48.066;14.124;2023-03-31T06:27:45;95780.41;;;10.41;58.38
49044;BME280;34860;48.066;14.124;2023-03-31T06:30:33;95775.66;;;10.50;58.35
49044;BME280;34860;48.066;14.124;2023-03-31T06:33:23;95781.53;;;10.62;58.06
49044;BME280;34860;48.066;14.124;2023-03-31T06:36:15;95772.78;;;10.72;58.35
49044;BME280;34860;48.066;14.124;2023-03-31T06:39:04;95778.66;;;10.84;57.99
49044;BME280;34860;48.066;14.124;2023-03-31T06:41:52;95787.31;;;10.95;57.91
49044;BME280;34860;48.066;14.124;2023-03-31T06:44:48;95775.59;;;11.09;57.98
49044;BME280;34860;48.066;14.124;2023-03-31T06:47:39;95762.31;;;11.23;57.81
49044;BME280;34860;48.066;14.124;2023-03-31T06:50:28;95752.72;;;11.33;57.84
49044;BME280;34860;48.066;14.124;2023-03-31T06:53:18;95760.00;;;11.40;57.87
49044;BME280;34860;48.066;14.124;2023-03-31T06:56:07;95768.78;;;11.48;57.90
49044;BME280;34860;48.066;14.124;2023-03-31T06:58:59;95759.81;;;11.53;57.84
49044;BME280;34860;48.066;14.124;2023-03-31T07:01:49;95747.75;;;11.56;57.96
49044;BME280;34860;48.066;14.124;2023-03-31T07:04:37;95753.31;;;11.56;57.98
49044;BME280;34860;48.066;14.124;2023-03-31T07:07:30;95749.78;;;11.55;58.05
49044;BME280;34860;48.066;14.124;2023-03-31T07:10:19;95751.78;;;11.55;58.15
49044;BME280;34860;48.066;14.124;2023-03-31T07:13:08;95741.09;;;11.53;58.23
49044;BME280;34860;48.066;14.124;2023-03-31T07:15:57;95736.00;;;11.52;58.27
49044;BME280;34860;48.066;14.124;2023-03-31T07:18:48;95712.97;;;11.51;58.54
49044;BME280;34860;48.066;14.124;2023-03-31T07:21:42;95722.56;;;11.50;58.46
49044;BME280;34860;48.066;14.124;2023-03-31T07:24:30;95731.38;;;11.49;58.51
49044;BME280;34860;48.066;14.124;2023-03-31T07:27:22;95723.50;;;11.47;58.35
49044;BME280;34860;48.066;14.124;2023-03-31T07:30:13;95711.59;;;11.47;58.58
49044;BME280;34860;48.066;14.124;2023-03-31T07:33:02;95701.72;;;11.45;58.46
49044;BME280;34860;48.066;14.124;2023-03-31T07:35:53;95677.91;;;11.44;58.42
49044;BME280;34860;48.066;14.124;2023-03-31T07:38:53;95677.91;;;11.44;58.50
49044;BME280;34860;48.066;14.124;2023-03-31T07:41:45;95675.91;;;11.45;58.62
49044;BME280;34860;48.066;14.124;2023-03-31T07:44:34;95675.44;;;11.47;58.51
49044;BME280;34860;48.066;14.124;2023-03-31T07:47:24;95677.75;;;11.48;58.57
49044;BME280;34860;48.066;14.124;2023-03-31T07:50:15;95657.03;;;11.49;58.59
49044;BME280;34860;48.066;14.124;2023-03-31T07:53:06;95667.22;;;11.52;58.61
49044;BME280;34860;48.066;14.124;2023-03-31T07:55:54;95655.31;;;11.52;58.59
49044;BME280;34860;48.066;14.124;2023-03-31T07:58:45;95644.50;;;11.54;58.50
49044;BME280;34860;48.066;14.124;2023-03-31T08:01:34;95646.03;;;11.55;58.65
49044;BME280;34860;48.066;14.124;2023-03-31T08:04:26;95648.66;;;11.58;58.54
49044;BME280;34860;48.066;14.124;2023-03-31T08:07:15;95641.84;;;11.59;58.73
49044;BME280;34860;48.066;14.124;2023-03-31T08:10:08;95633.03;;;11.61;58.47
49044;BME280;34860;48.066;14.124;2023-03-31T08:12:57;95642.00;;;11.65;58.49
49044;BME280;34860;48.066;14.124;2023-03-31T08:15:46;95622.81;;;11.67;58.51
49044;BME280;34860;48.066;14.124;2023-03-31T08:18:36;95626.97;;;11.72;58.54
49044;BME280;34860;48.066;14.124;2023-03-31T08:21:24;95610.25;;;11.72;58.56
49044;BME280;34860;48.066;14.124;2023-03-31T08:24:13;95598.19;;;11.75;58.42
49044;BME280;34860;48.066;14.124;2023-03-31T08:27:03;95588.91;;;11.78;58.54
49044;BME280;34860;48.066;14.124;2023-03-31T08:29:57;95588.44;;;11.79;58.42
49044;BME280;34860;48.066;14.124;2023-03-31T08:32:49;95602.16;;;11.83;58.54
49044;BME280;34860;48.066;14.124;2023-03-31T08:35:40;95601.22;;;11.86;58.45
49044;BME280;34860;48.066;14.124;2023-03-31T08:38:30;95582.03;;;11.88;58.49
49044;BME280;34860;48.066;14.124;2023-03-31T08:41:33;95585.91;;;11.91;58.69
49044;BME280;34860;48.066;14.124;2023-03-31T08:44:30;95591.78;;;11.93;58.59
49044;BME280;34860;48.066;14.124;2023-03-31T08:47:23;95597.63;;;11.95;58.55
49044;BME280;34860;48.066;14.124;2023-03-31T08:50:15;95586.34;;;11.98;58.56
49044;BME280;34860;48.066;14.124;2023-03-31T08:53:15;95566.69;;;12.02;58.60
49044;BME280;34860;48.066;14.124;2023-03-31T08:56:14;95577.63;;;12.06;58.56
49044;BME280;34860;48.066;14.124;2023-03-31T08:59:17;95590.59;;;12.09;58.54
49044;BME280;34860;48.066;14.124;2023-03-31T09:02:16;95587.81;;;12.09;58.54
49044;BME280;34860;48.066;14.124;2023-03-31T09:05:30;95596.78;;;12.13;58.61
49044;BME280;34860;48.066;14.124;2023-03-31T09:08:32;95601.88;;;12.14;58.47
49044;BME280;34860;48.066;14.124;2023-03-31T09:11:30;95619.97;;;12.19;58.55
49044;BME280;34860;48.066;14.124;2023-03-31T09:14:29;95633.41;;;12.21;58.46
49044;BME280;34860;48.066;14.124;2023-03-31T09:17:23;95649.16;;;12.24;58.45
49044;BME280;34860;48.066;14.124;2023-03-31T09:20:17;95670.97;;;12.25;58.52
49044;BME280;34860;48.066;14.124;2023-03-31T09:23:19;95684.91;;;12.25;58.55
49044;BME280;34860;48.066;14.124;2023-03-31T09:26:14;95679.78;;;12.24;58.66
49044;BME280;34860;48.066;14.124;2023-03-31T09:29:13;95690.66;;;12.22;58.57
49044;BME280;34860;48.066;14.124;2023-03-31T09:32:12;95705.84;;;12.21;58.73
49044;BME280;34860;48.066;14.124;2023-03-31T09:35:16;95686.03;;;12.18;58.87
49044;BME280;34860;48.066;14.124;2023-03-31T09:38:10;95694.84;;;12.17;58.84
49044;BME280;34860;48.066;14.124;2023-03-31T09:41:00;95677.84;;;12.15;58.84
49044;BME280;34860;48.066;14.124;2023-03-31T09:43:51;95666.69;;;12.15;58.87
49044;BME280;34860;48.066;14.124;2023-03-31T09:46:39;95639.94;;;12.17;58.77
49044;BME280;34860;48.066;14.124;2023-03-31T09:49:31;95610.94;;;12.24;58.92
49044;BME280;34860;48.066;14.124;2023-03-31T09:52:29;95596.66;;;12.31;58.78
49044;BME280;34860;48.066;14.124;2023-03-31T09:55:20;95589.19;;;12.38;58.80
49044;BME280;34860;48.066;14.124;2023-03-31T09:58:18;95580.94;;;12.43;58.69
49044;BME280;34860;48.066;14.124;2023-03-31T10:01:09;95562.00;;;12.47;58.49
49044;BME280;34860;48.066;14.124;2023-03-31T10:03:59;95545.59;;;12.49;58.54
49044;BME280;34860;48.066;14.124;2023-03-31T10:06:51;95537.06;;;12.53;58.57
49044;BME280;34860;48.066;14.124;2023-03-31T10:09:44;95524.16;;;12.56;58.58
49044;BME280;34860;48.066;14.124;2023-03-31T10:12:32;95536.84;;;12.57;58.53
49044;BME280;34860;48.066;14.124;2023-03-31T10:15:25;95534.34;;;12.59;58.64
49044;BME280;34860;48.066;14.124;2023-03-31T10:18:17;95528.78;;;12.59;58.62
49044;BME280;34860;48.066;14.124;2023-03-31T10:21:19;95511.28;;;12.58;58.64
49044;BME280;34860;48.066;14.124;2023-03-31T10:24:10;95526.47;;;12.57;58.70
49044;BME280;34860;48.066;14.124;2023-03-31T10:27:00;95520.13;;;12.57;58.68
49044;BME280;34860;48.066;14.124;2023-03-31T10:29:52;95493.03;;;12.57;58.71
49044;BME280;34860;48.066;14.124;2023-03-31T10:32:42;95475.06;;;12.58;58.83
49044;BME280;34860;48.066;14.124;2023-03-31T10:35:35;95478.44;;;12.62;58.68
49044;BME280;34860;48.066;14.124;2023-03-31T10:38:26;95470.63;;;12.66;58.98
49044;BME280;34860;48.066;14.124;2023-03-31T10:41:22;95468.44;;;12.70;58.67
49044;BME280;34860;48.066;14.124;2023-03-31T10:47:19;95478.53;;;12.83;58.75
49044;BME280;34860;48.066;14.124;2023-03-31T10:50:13;95502.16;;;12.87;58.71
49044;BME280;34860;48.066;14.124;2023-03-31T10:53:03;95535.25;;;12.95;58.54
49044;BME280;34860;48.066;14.124;2023-03-31T10:56:00;95533.81;;;12.99;58.49
49044;BME280;34860;48.066;14.124;2023-03-31T10:59:04;95538.72;;;13.04;58.61
49044;BME280;34860;48.066;14.124;2023-03-31T11:02:08;95534.78;;;13.11;58.55
49044;BME280;34860;48.066;14.124;2023-03-31T11:05:07;95527.53;;;13.19;58.51
49044;BME280;34860;48.066;14.124;2023-03-31T11:08:12;95519.06;;;13.29;58.54
49044;BME280;34860;48.066;14.124;2023-03-31T11:11:18;95502.72;;;13.36;58.45
49044;BME280;34860;48.066;14.124;2023-03-31T11:14:14;95478.75;;;13.44;58.37
49044;BME280;34860;48.066;14.124;2023-03-31T11:17:15;95470.25;;;13.54;58.40
49044;BME280;34860;48.066;14.124;2023-03-31T11:20:15;95455.13;;;13.60;58.29
49044;BME280;34860;48.066;14.124;2023-03-31T11:23:13;95470.50;;;13.71;58.37
49044;BME280;34860;48.066;14.124;2023-03-31T11:26:09;95471.13;;;13.80;58.34
49044;BME280;34860;48.066;14.124;2023-03-31T11:29:05;95485.25;;;13.92;58.20
49044;BME280;34860;48.066;14.124;2023-03-31T11:32:19;95463.88;;;14.09;58.07
49044;BME280;34860;48.066;14.124;2023-03-31T11:35:28;95457.97;;;14.28;58.04
49044;BME280;34860;48.066;14.124;2023-03-31T11:38:33;95436.53;;;14.45;58.05
49044;BME280;34860;48.066;14.124;2023-03-31T11:41:31;95424.56;;;14.65;57.84
49044;BME280;34860;48.066;14.124;2023-03-31T11:44:22;95417.91;;;14.89;57.73
49044;BME280;34860;48.066;14.124;2023-03-31T11:47:15;95408.63;;;15.09;57.64
49044;BME280;34860;48.066;14.124;2023-03-31T11:50:09;95415.38;;;15.29;57.54
49044;BME280;34860;48.066;14.124;2023-03-31T11:53:02;95408.84;;;15.43;57.54
49044;BME280;34860;48.066;14.124;2023-03-31T11:55:53;95384.47;;;15.55;57.54
49044;BME280;34860;48.066;14.124;2023-03-31T11:58:46;95398.03;;;15.68;57.49
49044;BME280;34860;48.066;14.124;2023-03-31T12:01:41;95397.78;;;15.71;57.44
49044;BME280;34860;48.066;14.124;2023-03-31T12:04:33;95377.66;;;15.73;57.72
49044;BME280;34860;48.066;14.124;2023-03-31T12:07:30;95368.25;;;15.76;57.59
49044;BME280;34860;48.066;14.124;2023-03-31T12:10:21;95354.00;;;15.74;57.76
49044;BME280;34860;48.066;14.124;2023-03-31T12:13:25;95357.56;;;15.74;57.71
49044;BME280;34860;48.066;14.124;2023-03-31T12:16:19;95341.75;;;15.71;57.70
49044;BME280;34860;48.066;14.124;2023-03-31T12:19:13;95359.84;;;15.70;58.00
49044;BME280;34860;48.066;14.124;2023-03-31T12:22:09;95366.97;;;15.66;57.92
49044;BME280;34860;48.066;14.124;2023-03-31T12:24:59;95357.75;;;15.59;57.89
49044;BME280;34860;48.066;14.124;2023-03-31T12:27:50;95358.78;;;15.56;57.88
49044;BME280;34860;48.066;14.124;2023-03-31T12:30:42;95367.41;;;15.53;57.96
49044;BME280;34860;48.066;14.124;2023-03-31T12:33:36;95359.75;;;15.48;57.93
49044;BME280;34860;48.066;14.124;2023-03-31T12:36:40;95366.38;;;15.44;58.02
49044;BME280;34860;48.066;14.124;2023-03-31T12:39:39;95356.63;;;15.34;58.15
49044;BME280;34860;48.066;14.124;2023-03-31T12:42:43;95382.81;;;15.31;58.05
49044;BME280;34860;48.066;14.124;2023-03-31T12:45:38;95387.34;;;15.23;58.07
49044;BME280;34860;48.066;14.124;2023-03-31T12:48:40;95392.88;;;15.12;58.22
49044;BME280;34860;48.066;14.124;2023-03-31T12:51:51;95368.13;;;14.99;58.46
49044;BME280;34860;48.066;14.124;2023-03-31T12:54:56;95390.19;;;14.91;58.50
49044;BME280;34860;48.066;14.124;2023-03-31T12:57:49;95376.13;;;14.80;58.33
49044;BME280;34860;48.066;14.124;2023-03-31T13:01:03;95366.59;;;14.66;58.51
49044;BME280;34860;48.066;14.124;2023-03-31T13:04:06;95369.28;;;14.54;58.69
49044;BME280;34860;48.066;14.124;2023-03-31T13:06:57;95365.66;;;14.48;58.60
49044;BME280;34860;48.066;14.124;2023-03-31T13:09:48;95366.41;;;14.43;58.46
49044;BME280;34860;48.066;14.124;2023-03-31T13:12:41;95371.94;;;14.38;58.58
49044;BME280;34860;48.066;14.124;2023-03-31T13:15:49;95373.91;;;14.31;58.50
49044;BME280;34860;48.066;14.124;2023-03-31T13:18:49;95409.44;;;14.25;58.43
49044;BME280;34860;48.066;14.124;2023-03-31T13:21:51;95413.63;;;14.15;58.57
49044;BME280;34860;48.066;14.124;2023-03-31T13:24:41;95420.16;;;14.06;58.60
49044;BME280;34860;48.066;14.124;2023-03-31T13:27:32;95437.53;;;13.95;58.59
49044;BME280;34860;48.066;14.124;2023-03-31T13:30:45;95434.59;;;13.84;58.59
49044;BME280;34860;48.066;14.124;2023-03-31T13:33:37;95439.56;;;13.74;58.70
49044;BME280;34860;48.066;14.124;2023-03-31T13:36:58;95434.06;;;13.59;58.79
49044;BME280;34860;48.066;14.124;2023-03-31T13:40:15;95390.91;;;13.40;58.88
49044;BME280;34860;48.066;14.124;2023-03-31T13:43:24;95419.53;;;13.20;59.16
49044;BME280;34860;48.066;14.124;2023-03-31T13:46:41;95387.25;;;12.98;59.43
49044;BME280;34860;48.066;14.124;2023-03-31T13:49:54;95359.00;;;12.90;59.33
49044;BME280;34860;48.066;14.124;2023-03-31T13:52:56;95336.84;;;12.81;59.17
49044;BME280;34860;48.066;14.124;2023-03-31T13:56:05;95333.19;;;12.75;59.23
49044;BME280;34860;48.066;14.124;2023-03-31T13:59:19;95317.75;;;12.59;59.28
49044;BME280;34860;48.066;14.124;2023-03-31T14:02:26;95317.66;;;12.53;59.24
49044;BME280;34860;48.066;14.124;2023-03-31T14:05:28;95308.66;;;12.44;59.31
49044;BME280;34860;48.066;14.124;2023-03-31T14:08:26;95322.19;;;12.36;59.15
49044;BME280;34860;48.066;14.124;2023-03-31T14:11:20;95305.88;;;12.29;59.29
49044;BME280;34860;48.066;14.124;2023-03-31T14:14:11;95303.19;;;12.20;59.29
49044;BME280;34860;48.066;14.124;2023-03-31T14:17:01;95281.88;;;12.16;59.40
49044;BME280;34860;48.066;14.124;2023-03-31T14:20:18;95277.06;;;12.17;59.17
49044;BME280;34860;48.066;14.124;2023-03-31T14:23:20;95287.16;;;12.14;59.26
49044;BME280;34860;48.066;14.124;2023-03-31T14:26:18;95281.59;;;12.14;59.12
49044;BME280;34860;48.066;14.124;2023-03-31T14:29:13;95284.66;;;12.16;59.04
49044;BME280;34860;48.066;14.124;2023-03-31T14:32:14;95287.44;;;12.16;59.07
49044;BME280;34860;48.066;14.124;2023-03-31T14:35:21;95276.59;;;12.18;58.89
49044;BME280;34860;48.066;14.124;2023-03-31T14:38:15;95267.25;;;12.22;58.84
49044;BME280;34860;48.066;14.124;2023-03-31T14:41:12;95263.72;;;12.21;58.77
49044;BME280;34860;48.066;14.124;2023-03-31T14:44:04;95250.56;;;12.22;58.89
49044;BME280;34860;48.066;14.124;2023-03-31T14:46:55;95242.19;;;12.22;58.65
49044;BME280;34860;48.066;14.124;2023-03-31T14:49:44;95252.09;;;12.23;58.73
49044;BME280;34860;48.066;14.124;2023-03-31T14:52:33;95240.69;;;12.21;58.73
49044;BME280;34860;48.066;14.124;2023-03-31T14:55:25;95249.78;;;12.21;58.79
49044;BME280;34860;48.066;14.124;2023-03-31T14:58:33;95250.56;;;12.22;58.78
49044;BME280;34860;48.066;14.124;2023-03-31T15:01:24;95262.97;;;12.21;58.71
49044;BME280;34860;48.066;14.124;2023-03-31T15:04:18;95210.53;;;12.19;58.65
49044;BME280;34860;48.066;14.124;2023-03-31T15:07:12;95247.50;;;12.20;58.56
49044;BME280;34860;48.066;14.124;2023-03-31T15:10:02;95236.34;;;12.20;58.71
49044;BME280;34860;48.066;14.124;2023-03-31T15:12:51;95223.97;;;12.21;58.66
49044;BME280;34860;48.066;14.124;2023-03-31T15:15:40;95212.34;;;12.22;58.58